sensor_id;sensor_type;location;lat;lon;timestamp;P1;durP1;ratioP1;P2;durP2;ratioP2
40595;SDS011;26304;48.794;9.820;2022-07-05T00:05:15;2.10;;;1.40;;
40595;SDS011;26304;48.794;9.820;2022-07-05T00:10:58;2.28;;;1.50;;
40595;SDS011;26304;48.794;9.820;2022-07-05T00:16:40;2.05;;;1.50;;
40595;SDS011;26304;48.794;9.820;2022-07-05T00:22:24;1.77;;;1.58;;
40595;SDS011;26304;48.794;9.820;2022-07-05T00:28:07;1.95;;;1.75;;
40595;SDS011;26304;48.794;9.820;2022-07-05T00:33:51;1.75;;;1.65;;
40595;SDS011;26304;48.794;9.820;2022-07-05T00:39:35;3.88;;;2.28;;
40595;SDS011;26304;48.794;9.820;2022-07-05T00:45:18;3.88;;;2.17;;
40595;SDS011;26304;48.794;9.820;2022-07-05T00:51:02;3.00;;;1.90;;
40595;SDS011;26304;48.794;9.820;2022-07-05T00:56:46;2.63;;;1.88;;
40595;SDS011;26304;48.794;9.820;2022-07-05T01:02:29;3.47;;;1.95;;
40595;SDS011;26304;48.794;9.820;2022-07-05T01:08:11;2.17;;;1.98;;
40595;SDS011;26304;48.794;9.820;2022-07-05T01:13:56;1.80;;;1.70;;
40595;SDS011;26304;48.794;9.820;2022-07-05T01:19:40;2.38;;;1.80;;
40595;SDS011;26304;48.794;9.820;2022-07-05T01:25:25;2.13;;;2.00;;
40595;SDS011;26304;48.794;9.820;2022-07-05T01:31:09;2.72;;;1.95;;
40595;SDS011;26304;48.794;9.820;2022-07-05T01:36:52;2.35;;;2.08;;
40595;SDS011;26304;48.794;9.820;2022-07-05T01:42:36;2.80;;;2.60;;
40595;SDS011;26304;48.794;9.820;2022-07-05T01:48:19;2.30;;;2.15;;
40595;SDS011;26304;48.794;9.820;2022-07-05T01:54:03;2.30;;;2.10;;
40595;SDS011;26304;48.794;9.820;2022-07-05T01:59:48;2.33;;;1.60;;
40595;SDS011;26304;48.794;9.820;2022-07-05T02:05:30;2.13;;;2.03;;
40595;SDS011;26304;48.794;9.820;2022-07-05T02:11:13;1.90;;;1.80;;
40595;SDS011;26304;48.794;9.820;2022-07-05T02:16:57;2.35;;;2.15;;
40595;SDS011;26304;48.794;9.820;2022-07-05T02:22:39;2.83;;;2.03;;
40595;SDS011;26304;48.794;9.820;2022-07-05T02:28:23;3.90;;;1.75;;
40595;SDS011;26304;48.794;9.820;2022-07-05T02:34:07;2.25;;;2.05;;
40595;SDS011;26304;48.794;9.820;2022-07-05T02:39:49;2.55;;;2.35;;
40595;SDS011;26304;48.794;9.820;2022-07-05T02:45:32;2.13;;;2.00;;
40595;SDS011;26304;48.794;9.820;2022-07-05T02:51:16;2.10;;;1.90;;
40595;SDS011;26304;48.794;9.820;2022-07-05T02:56:59;1.90;;;1.80;;
40595;SDS011;26304;48.794;9.820;2022-07-05T03:02:41;2.28;;;2.08;;
40595;SDS011;26304;48.794;9.820;2022-07-05T03:08:25;2.40;;;2.20;;
40595;SDS011;26304;48.794;9.820;2022-07-05T03:14:08;2.45;;;2.33;;
40595;SDS011;26304;48.794;9.820;2022-07-05T03:19:50;5.85;;;5.00;;
40595;SDS011;26304;48.794;9.820;2022-07-05T03:25:34;25.65;;;17.92;;
40595;SDS011;26304;48.794;9.820;2022-07-05T03:31:17;25.55;;;15.23;;
40595;SDS011;26304;48.794;9.820;2022-07-05T03:36:59;11.45;;;8.73;;
40595;SDS011;26304;48.794;9.820;2022-07-05T03:42:43;14.20;;;10.15;;
40595;SDS011;26304;48.794;9.820;2022-07-05T03:48:26;9.13;;;7.30;;
40595;SDS011;26304;48.794;9.820;2022-07-05T03:54:08;4.72;;;4.15;;
40595;SDS011;26304;48.794;9.820;2022-07-05T03:59:52;3.10;;;2.80;;
40595;SDS011;26304;48.794;9.820;2022-07-05T04:05:35;2.80;;;2.60;;
40595;SDS011;26304;48.794;9.820;2022-07-05T04:11:17;2.88;;;2.60;;
40595;SDS011;26304;48.794;9.820;2022-07-05T04:17:01;3.83;;;2.58;;
40595;SDS011;26304;48.794;9.820;2022-07-05T04:22:44;3.45;;;3.15;;
40595;SDS011;26304;48.794;9.820;2022-07-05T04:28:27;2.88;;;2.67;;
40595;SDS011;26304;48.794;9.820;2022-07-05T04:34:12;2.92;;;2.72;;
40595;SDS011;26304;48.794;9.820;2022-07-05T04:39:55;2.65;;;2.55;;
40595;SDS011;26304;48.794;9.820;2022-07-05T04:45:37;5.38;;;2.88;;
40595;SDS011;26304;48.794;9.820;2022-07-05T04:51:21;2.60;;;2.40;;
40595;SDS011;26304;48.794;9.820;2022-07-05T04:57:04;3.22;;;2.50;;
40595;SDS011;26304;48.794;9.820;2022-07-05T05:02:47;3.28;;;2.85;;
40595;SDS011;26304;48.794;9.820;2022-07-05T05:13:57;4.28;;;2.60;;
40595;SDS011;26304;48.794;9.820;2022-07-05T05:19:39;3.15;;;2.90;;
40595;SDS011;26304;48.794;9.820;2022-07-05T05:25:22;3.15;;;2.90;;
40595;SDS011;26304;48.794;9.820;2022-07-05T05:31:06;3.05;;;2.85;;
40595;SDS011;26304;48.794;9.820;2022-07-05T05:36:49;3.13;;;2.92;;
40595;SDS011;26304;48.794;9.820;2022-07-05T05:42:32;3.33;;;3.13;;
40595;SDS011;26304;48.794;9.820;2022-07-05T05:48:15;2.92;;;2.72;;
40595;SDS011;26304;48.794;9.820;2022-07-05T05:53:59;3.28;;;3.03;;
40595;SDS011;26304;48.794;9.820;2022-07-05T05:59:41;2.60;;;2.50;;
40595;SDS011;26304;48.794;9.820;2022-07-05T06:05:25;2.80;;;2.60;;
40595;SDS011;26304;48.794;9.820;2022-07-05T06:11:08;3.20;;;3.00;;
40595;SDS011;26304;48.794;9.820;2022-07-05T06:16:50;3.03;;;2.72;;
40595;SDS011;26304;48.794;9.820;2022-07-05T06:22:34;3.13;;;2.92;;
40595;SDS011;26304;48.794;9.820;2022-07-05T06:28:17;2.97;;;2.70;;
40595;SDS011;26304;48.794;9.820;2022-07-05T06:34:00;2.58;;;2.40;;
40595;SDS011;26304;48.794;9.820;2022-07-05T06:39:44;2.47;;;2.28;;
40595;SDS011;26304;48.794;9.820;2022-07-05T06:45:26;2.63;;;2.47;;
40595;SDS011;26304;48.794;9.820;2022-07-05T06:51:09;3.70;;;2.75;;
40595;SDS011;26304;48.794;9.820;2022-07-05T06:56:53;5.22;;;2.78;;
40595;SDS011;26304;48.794;9.820;2022-07-05T07:02:36;3.45;;;2.80;;
40595;SDS011;26304;48.794;9.820;2022-07-05T07:08:18;2.55;;;2.38;;
40595;SDS011;26304;48.794;9.820;2022-07-05T07:14:20;2.78;;;2.58;;
40595;SDS011;26304;48.794;9.820;2022-07-05T07:20:02;3.70;;;2.70;;
40595;SDS011;26304;48.794;9.820;2022-07-05T07:25:46;2.60;;;2.42;;
40595;SDS011;26304;48.794;9.820;2022-07-05T07:31:30;2.92;;;2.55;;
40595;SDS011;26304;48.794;9.820;2022-07-05T07:37:13;2.55;;;2.22;;
40595;SDS011;26304;48.794;9.820;2022-07-05T07:42:56;3.05;;;2.85;;
40595;SDS011;26304;48.794;9.820;2022-07-05T07:48:40;2.70;;;2.50;;
40595;SDS011;26304;48.794;9.820;2022-07-05T07:54:22;2.80;;;2.42;;
40595;SDS011;26304;48.794;9.820;2022-07-05T08:00:05;2.60;;;2.40;;
40595;SDS011;26304;48.794;9.820;2022-07-05T08:05:50;2.70;;;2.60;;
40595;SDS011;26304;48.794;9.820;2022-07-05T08:11:33;2.70;;;2.50;;
40595;SDS011;26304;48.794;9.820;2022-07-05T08:17:15;3.35;;;2.85;;
40595;SDS011;26304;48.794;9.820;2022-07-05T08:23:02;2.80;;;2.60;;
40595;SDS011;26304;48.794;9.820;2022-07-05T08:28:45;2.20;;;2.00;;
40595;SDS011;26304;48.794;9.820;2022-07-05T08:34:27;2.50;;;2.40;;
40595;SDS011;26304;48.794;9.820;2022-07-05T08:40:11;2.50;;;2.30;;
40595;SDS011;26304;48.794;9.820;2022-07-05T08:45:56;2.72;;;2.53;;
40595;SDS011;26304;48.794;9.820;2022-07-05T08:51:41;2.72;;;2.20;;
40595;SDS011;26304;48.794;9.820;2022-07-05T08:57:26;2.53;;;2.33;;
40595;SDS011;26304;48.794;9.820;2022-07-05T09:03:08;3.60;;;2.67;;
40595;SDS011;26304;48.794;9.820;2022-07-05T09:08:51;4.78;;;2.90;;
40595;SDS011;26304;48.794;9.820;2022-07-05T09:14:38;2.40;;;2.30;;
40595;SDS011;26304;48.794;9.820;2022-07-05T09:20:20;2.97;;;2.67;;
40595;SDS011;26304;48.794;9.820;2022-07-05T09:26:03;3.67;;;2.50;;
40595;SDS011;26304;48.794;9.820;2022-07-05T09:31:47;2.45;;;2.33;;
40595;SDS011;26304;48.794;9.820;2022-07-05T09:37:42;3.05;;;2.47;;
40595;SDS011;26304;48.794;9.820;2022-07-05T09:43:26;2.42;;;2.30;;
40595;SDS011;26304;48.794;9.820;2022-07-05T09:49:11;2.63;;;2.42;;
40595;SDS011;26304;48.794;9.820;2022-07-05T09:55:00;2.30;;;2.10;;
40595;SDS011;26304;48.794;9.820;2022-07-05T10:00:43;2.70;;;2.50;;
40595;SDS011;26304;48.794;9.820;2022-07-05T10:06:27;2.30;;;2.20;;
40595;SDS011;26304;48.794;9.820;2022-07-05T10:12:11;2.33;;;2.22;;
40595;SDS011;26304;48.794;9.820;2022-07-05T10:17:55;2.35;;;2.25;;
40595;SDS011;26304;48.794;9.820;2022-07-05T10:23:44;5.50;;;2.38;;
40595;SDS011;26304;48.794;9.820;2022-07-05T10:29:27;2.50;;;2.30;;
40595;SDS011;26304;48.794;9.820;2022-07-05T10:35:11;2.72;;;2.30;;
40595;SDS011;26304;48.794;9.820;2022-07-05T10:40:57;2.92;;;2.53;;
40595;SDS011;26304;48.794;9.820;2022-07-05T10:46:43;2.30;;;2.10;;
40595;SDS011;26304;48.794;9.820;2022-07-05T10:52:27;2.40;;;2.30;;
40595;SDS011;26304;48.794;9.820;2022-07-05T10:58:27;2.60;;;2.40;;
40595;SDS011;26304;48.794;9.820;2022-07-05T11:04:26;2.20;;;2.10;;
40595;SDS011;26304;48.794;9.820;2022-07-05T11:10:12;2.05;;;1.95;;
40595;SDS011;26304;48.794;9.820;2022-07-05T11:22:04;2.38;;;2.17;;
40595;SDS011;26304;48.794;9.820;2022-07-05T11:33:55;2.30;;;2.20;;
40595;SDS011;26304;48.794;9.820;2022-07-05T11:46:09;2.22;;;2.10;;
40595;SDS011;26304;48.794;9.820;2022-07-05T11:51:57;1.95;;;1.85;;
40595;SDS011;26304;48.794;9.820;2022-07-05T11:57:47;1.90;;;1.80;;
40595;SDS011;26304;48.794;9.820;2022-07-05T12:03:31;1.83;;;1.73;;
40595;SDS011;26304;48.794;9.820;2022-07-05T12:09:21;2.35;;;2.15;;
40595;SDS011;26304;48.794;9.820;2022-07-05T12:15:05;2.10;;;2.00;;
40595;SDS011;26304;48.794;9.820;2022-07-05T12:20:48;2.53;;;1.77;;
40595;SDS011;26304;48.794;9.820;2022-07-05T12:26:32;2.00;;;1.85;;
40595;SDS011;26304;48.794;9.820;2022-07-05T12:32:15;2.20;;;2.10;;
40595;SDS011;26304;48.794;9.820;2022-07-05T12:38:01;1.75;;;1.65;;
40595;SDS011;26304;48.794;9.820;2022-07-05T12:43:49;1.90;;;1.80;;
40595;SDS011;26304;48.794;9.820;2022-07-05T12:55:37;2.03;;;1.92;;
40595;SDS011;26304;48.794;9.820;2022-07-05T13:01:40;1.88;;;1.70;;
40595;SDS011;26304;48.794;9.820;2022-07-05T13:07:24;1.90;;;1.80;;
40595;SDS011;26304;48.794;9.820;2022-07-05T13:13:08;1.92;;;1.83;;
40595;SDS011;26304;48.794;9.820;2022-07-05T13:18:52;3.15;;;2.00;;
40595;SDS011;26304;48.794;9.820;2022-07-05T13:24:35;1.98;;;1.88;;
40595;SDS011;26304;48.794;9.820;2022-07-05T13:30:18;2.42;;;1.90;;
40595;SDS011;26304;48.794;9.820;2022-07-05T13:36:02;1.73;;;1.63;;
40595;SDS011;26304;48.794;9.820;2022-07-05T13:41:46;1.90;;;1.80;;
40595;SDS011;26304;48.794;9.820;2022-07-05T13:47:29;1.80;;;1.70;;
40595;SDS011;26304;48.794;9.820;2022-07-05T13:53:13;1.60;;;1.50;;
40595;SDS011;26304;48.794;9.820;2022-07-05T13:58:55;1.58;;;1.30;;
40595;SDS011;26304;48.794;9.820;2022-07-05T14:04:38;1.77;;;1.67;;
40595;SDS011;26304;48.794;9.820;2022-07-05T14:10:22;2.00;;;1.60;;
40595;SDS011;26304;48.794;9.820;2022-07-05T14:16:04;1.95;;;1.70;;
40595;SDS011;26304;48.794;9.820;2022-07-05T14:21:48;2.45;;;1.42;;
40595;SDS011;26304;48.794;9.820;2022-07-05T14:27:32;1.60;;;1.50;;
40595;SDS011;26304;48.794;9.820;2022-07-05T14:33:14;1.40;;;1.30;;
40595;SDS011;26304;48.794;9.820;2022-07-05T14:38:58;2.15;;;1.40;;
40595;SDS011;26304;48.794;9.820;2022-07-05T14:44:43;2.58;;;1.48;;
40595;SDS011;26304;48.794;9.820;2022-07-05T14:50:26;1.50;;;1.50;;
40595;SDS011;26304;48.794;9.820;2022-07-05T14:56:08;1.23;;;1.23;;
40595;SDS011;26304;48.794;9.820;2022-07-05T15:01:52;1.48;;;1.38;;
40595;SDS011;26304;48.794;9.820;2022-07-05T15:07:35;1.85;;;1.23;;
40595;SDS011;26304;48.794;9.820;2022-07-05T15:13:18;1.48;;;1.40;;
40595;SDS011;26304;48.794;9.820;2022-07-05T15:19:02;1.60;;;1.50;;
40595;SDS011;26304;48.794;9.820;2022-07-05T15:24:44;1.50;;;1.40;;
40595;SDS011;26304;48.794;9.820;2022-07-05T15:30:27;1.27;;;1.17;;
40595;SDS011;26304;48.794;9.820;2022-07-05T15:36:11;1.17;;;1.17;;
40595;SDS011;26304;48.794;9.820;2022-07-05T15:41:53;1.67;;;1.35;;
40595;SDS011;26304;48.794;9.820;2022-07-05T15:47:36;1.40;;;1.30;;
40595;SDS011;26304;48.794;9.820;2022-07-05T15:53:21;1.63;;;1.40;;
40595;SDS011;26304;48.794;9.820;2022-07-05T15:59:04;2.58;;;1.45;;
40595;SDS011;26304;48.794;9.820;2022-07-05T16:04:46;1.40;;;1.30;;
40595;SDS011;26304;48.794;9.820;2022-07-05T16:10:30;2.95;;;1.42;;
40595;SDS011;26304;48.794;9.820;2022-07-05T16:16:12;1.42;;;1.33;;
40595;SDS011;26304;48.794;9.820;2022-07-05T16:21:56;1.58;;;1.40;;
40595;SDS011;26304;48.794;9.820;2022-07-05T16:27:40;1.55;;;1.40;;
40595;SDS011;26304;48.794;9.820;2022-07-05T16:33:23;1.38;;;1.33;;
40595;SDS011;26304;48.794;9.820;2022-07-05T16:39:05;1.48;;;1.38;;
40595;SDS011;26304;48.794;9.820;2022-07-05T16:44:51;1.60;;;1.50;;
40595;SDS011;26304;48.794;9.820;2022-07-05T16:50:33;1.90;;;1.40;;
40595;SDS011;26304;48.794;9.820;2022-07-05T16:56:16;1.60;;;1.50;;
40595;SDS011;26304;48.794;9.820;2022-07-05T17:02:00;1.65;;;1.38;;
40595;SDS011;26304;48.794;9.820;2022-07-05T17:07:44;1.77;;;1.63;;
40595;SDS011;26304;48.794;9.820;2022-07-05T17:13:28;1.70;;;1.60;;
40595;SDS011;26304;48.794;9.820;2022-07-05T17:19:12;3.25;;;1.65;;
40595;SDS011;26304;48.794;9.820;2022-07-05T17:24:55;1.48;;;1.38;;
40595;SDS011;26304;48.794;9.820;2022-07-05T17:30:38;2.45;;;1.52;;
40595;SDS011;26304;48.794;9.820;2022-07-05T17:36:22;1.20;;;1.20;;
40595;SDS011;26304;48.794;9.820;2022-07-05T17:42:04;2.13;;;1.55;;
40595;SDS011;26304;48.794;9.820;2022-07-05T17:47:47;1.53;;;1.40;;
40595;SDS011;26304;48.794;9.820;2022-07-05T17:53:31;2.58;;;1.55;;
40595;SDS011;26304;48.794;9.820;2022-07-05T17:59:14;1.77;;;1.48;;
40595;SDS011;26304;48.794;9.820;2022-07-05T18:04:56;1.50;;;1.40;;
40595;SDS011;26304;48.794;9.820;2022-07-05T18:10:41;8.27;;;1.80;;
40595;SDS011;26304;48.794;9.820;2022-07-05T18:16:23;1.70;;;1.30;;
40595;SDS011;26304;48.794;9.820;2022-07-05T18:22:06;1.95;;;1.48;;
40595;SDS011;26304;48.794;9.820;2022-07-05T18:27:50;1.25;;;1.15;;
40595;SDS011;26304;48.794;9.820;2022-07-05T18:33:33;1.35;;;1.20;;
40595;SDS011;26304;48.794;9.820;2022-07-05T18:39:16;2.05;;;1.25;;
40595;SDS011;26304;48.794;9.820;2022-07-05T18:45:00;1.48;;;1.38;;
40595;SDS011;26304;48.794;9.820;2022-07-05T18:50:43;2.15;;;1.48;;
40595;SDS011;26304;48.794;9.820;2022-07-05T18:56:26;1.67;;;1.27;;
40595;SDS011;26304;48.794;9.820;2022-07-05T19:02:10;1.45;;;1.30;;
40595;SDS011;26304;48.794;9.820;2022-07-05T19:07:53;2.63;;;2.00;;
40595;SDS011;26304;48.794;9.820;2022-07-05T19:13:53;1.75;;;1.65;;
40595;SDS011;26304;48.794;9.820;2022-07-05T19:19:37;2.20;;;2.00;;
40595;SDS011;26304;48.794;9.820;2022-07-05T19:25:19;1.95;;;1.85;;
40595;SDS011;26304;48.794;9.820;2022-07-05T19:31:02;1.90;;;1.80;;
40595;SDS011;26304;48.794;9.820;2022-07-05T19:36:46;2.97;;;2.03;;
40595;SDS011;26304;48.794;9.820;2022-07-05T19:42:29;2.30;;;1.70;;
40595;SDS011;26304;48.794;9.820;2022-07-05T19:48:11;1.55;;;1.45;;
40595;SDS011;26304;48.794;9.820;2022-07-05T19:53:55;1.92;;;1.73;;
40595;SDS011;26304;48.794;9.820;2022-07-05T19:59:38;4.30;;;1.88;;
40595;SDS011;26304;48.794;9.820;2022-07-05T20:05:20;1.75;;;1.60;;
40595;SDS011;26304;48.794;9.820;2022-07-05T20:11:04;1.70;;;1.60;;
40595;SDS011;26304;48.794;9.820;2022-07-05T20:16:47;1.65;;;1.55;;
40595;SDS011;26304;48.794;9.820;2022-07-05T20:22:30;1.75;;;1.50;;
40595;SDS011;26304;48.794;9.820;2022-07-05T20:28:14;1.42;;;1.33;;
40595;SDS011;26304;48.794;9.820;2022-07-05T20:33:56;1.52;;;1.42;;
40595;SDS011;26304;48.794;9.820;2022-07-05T20:39:39;1.45;;;1.30;;
40595;SDS011;26304;48.794;9.820;2022-07-05T20:45:23;1.65;;;1.55;;
40595;SDS011;26304;48.794;9.820;2022-07-05T20:51:06;1.70;;;1.30;;
40595;SDS011;26304;48.794;9.820;2022-07-05T20:56:48;2.22;;;1.60;;
40595;SDS011;26304;48.794;9.820;2022-07-05T21:02:32;1.58;;;1.48;;
40595;SDS011;26304;48.794;9.820;2022-07-05T21:08:15;1.92;;;1.60;;
40595;SDS011;26304;48.794;9.820;2022-07-05T21:13:58;1.83;;;1.73;;
40595;SDS011;26304;48.794;9.820;2022-07-05T21:19:42;3.95;;;1.90;;
40595;SDS011;26304;48.794;9.820;2022-07-05T21:25:24;2.33;;;2.10;;
40595;SDS011;26304;48.794;9.820;2022-07-05T21:31:07;4.47;;;2.40;;
40595;SDS011;26304;48.794;9.820;2022-07-05T21:36:51;2.55;;;2.00;;
40595;SDS011;26304;48.794;9.820;2022-07-05T21:42:33;1.75;;;1.60;;
40595;SDS011;26304;48.794;9.820;2022-07-05T21:48:16;2.17;;;1.83;;
40595;SDS011;26304;48.794;9.820;2022-07-05T21:54:00;1.60;;;1.50;;
40595;SDS011;26304;48.794;9.820;2022-07-05T21:59:42;2.13;;;1.98;;
40595;SDS011;26304;48.794;9.820;2022-07-05T22:05:42;4.40;;;2.08;;
40595;SDS011;26304;48.794;9.820;2022-07-05T22:11:26;2.83;;;1.85;;
40595;SDS011;26304;48.794;9.820;2022-07-05T22:17:18;2.40;;;2.20;;
40595;SDS011;26304;48.794;9.820;2022-07-05T22:23:03;2.55;;;1.88;;
40595;SDS011;26304;48.794;9.820;2022-07-05T22:28:47;2.33;;;1.90;;
40595;SDS011;26304;48.794;9.820;2022-07-05T22:34:30;2.25;;;2.15;;
40595;SDS011;26304;48.794;9.820;2022-07-05T22:40:12;2.60;;;1.98;;
40595;SDS011;26304;48.794;9.820;2022-07-05T22:45:56;1.80;;;1.70;;
40595;SDS011;26304;48.794;9.820;2022-07-05T22:51:38;2.00;;;1.63;;
40595;SDS011;26304;48.794;9.820;2022-07-05T22:57:21;2.08;;;1.90;;
40595;SDS011;26304;48.794;9.820;2022-07-05T23:03:05;1.63;;;1.52;;
40595;SDS011;26304;48.794;9.820;2022-07-05T23:08:48;2.75;;;1.77;;
40595;SDS011;26304;48.794;9.820;2022-07-05T23:14:30;2.45;;;1.73;;
40595;SDS011;26304;48.794;9.820;2022-07-05T23:20:14;1.85;;;1.52;;
40595;SDS011;26304;48.794;9.820;2022-07-05T23:25:57;1.85;;;1.70;;
40595;SDS011;26304;48.794;9.820;2022-07-05T23:31:39;1.85;;;1.70;;
40595;SDS011;26304;48.794;9.820;2022-07-05T23:37:23;2.72;;;1.90;;
40595;SDS011;26304;48.794;9.820;2022-07-05T23:43:06;2.65;;;1.92;;
40595;SDS011;26304;48.794;9.820;2022-07-05T23:48:48;1.73;;;1.63;;
40595;SDS011;26304;48.794;9.820;2022-07-05T23:54:32;2.50;;;2.03;;
